Time;durP1;ratioP1;P1;durP2;ratioP2;P2;SDS_P1;SDS_P2;PMS_P1;PMS_P2;Temp;Humidity;BMP_temperature;BMP_pressure;BME280_temperature;BME280_humidity;BME280_pressure;Samples;Min_cycle;Max_cycle;Signal;HPM_P1;HPM_P2
2021/12/15 00:01:50;;;;;;;;;;;;;;;;;;7392004;19;19982;-62
2021/12/15 00:04:18;;;;;;;;;;;;;;;;;;7394054;19;19971;-62
2021/12/15 00:06:45;;;;;;;;;;;;;;;;;;7393480;19;20359;-62
2021/12/15 00:09:13;;;;;;;;;;;;;;;;;;7393275;19;20654;-68
2021/12/15 00:11:41;;;;;;;;;;;;;;;;;;7393473;19;19910;-68
2021/12/15 00:14:12;;;;;;;;;;;;;;;;;;7393794;19;19914;-62
2021/12/15 00:16:40;;;;;;;;;;;;;;;;;;7393185;19;19938;-64
2021/12/15 00:19:08;;;;;;;;;;;;;;;;;;7393628;19;19936;-62
2021/12/15 00:21:35;;;;;;;;;;;;;;;;;;7391754;19;19914;-62
2021/12/15 00:24:04;;;;;;;;;;;;;;;;;;7393786;19;19970;-62
2021/12/15 00:26:32;;;;;;;;;;;;;;;;;;7393394;19;19919;-63
2021/12/15 00:28:59;;;;;;;;;;;;;;;;;;7392822;19;19927;-65
2021/12/15 00:31:28;;;;;;;;;;;;;;;;;;7393074;19;19931;-64
2021/12/15 00:33:56;;;;;;;;;;;;;;;;;;7392856;19;19938;-62
2021/12/15 00:36:23;;;;;;;;;;;;;;;;;;7390682;19;19922;-70
2021/12/15 00:38:50;;;;;;;;;;;;;;;;;;7392623;19;20361;-62
2021/12/15 00:41:19;;;;;;;;;;;;;;;;;;7389606;19;19915;-65
2021/12/15 00:43:46;;;;;;;;;;;;;;;;;;7390877;19;19923;-64
2021/12/15 00:46:14;;;;;;;;;;;;;;;;;;7392334;19;19928;-69
2021/12/15 00:48:43;;;;;;;;;;;;;;;;;;7391813;19;19921;-63
2021/12/15 00:51:13;;;;;;;;;;;;;;;;;;7392486;19;19919;-62
2021/12/15 00:53:40;;;;;;;;;;;;;;;;;;7390623;19;20371;-62
2021/12/15 00:56:08;;;;;;;;;;;;;;;;;;7392754;19;19915;-71
2021/12/15 00:58:35;;;;;;;;;;;;;;;;;;7392886;19;19929;-63
2021/12/15 01:01:03;;;;;;;;;;;;;;;;;;7390919;19;19922;-62
2021/12/15 01:03:31;;;;;;;;;;;;;;;;;;7391744;19;19926;-63
2021/12/15 01:06:04;;;;;;;;;;;;;;;;;;7392010;19;19915;-62
2021/12/15 01:08:32;;;;;;;;;;;;;;;;;;7390252;19;19925;-65
2021/12/15 01:11:13;;;;;;;;;;;;;;;;;;7390316;19;19916;-63
2021/12/15 01:19:52;;;;;;;;;;;;;;;;;;7391566;19;19942;-64
2021/12/15 01:22:25;;;;;;;;;;;;;;;;;;7391108;19;19915;-63
2021/12/15 01:24:54;;;;;;;;;;;;;;;;;;7389656;19;19942;-71
2021/12/15 01:27:21;;;;;;;;;;;;;;;;;;7390058;19;19919;-71
2021/12/15 01:29:50;;;;;;;;;;;;;;;;;;7391100;19;19911;-63
2021/12/15 01:32:17;;;;;;;;;;;;;;;;;;7389486;19;19918;-71
2021/12/15 01:34:45;;;;;;;;;;;;;;;;;;7391214;19;19931;-62
2021/12/15 01:37:12;;;;;;;;;;;;;;;;;;7394719;19;19918;-62
2021/12/15 01:39:40;;;;;;;;;;;;;;;;;;7389609;19;19929;-63
2021/12/15 01:42:08;;;;;;;;;;;;;;;;;;7389791;19;19919;-73
2021/12/15 01:47:21;;;;;;;;;;;;;;;;;;7394462;19;19958;-67
2021/12/15 01:49:50;;;;;;;;;;;;;;;;;;7396989;19;19946;-61
2021/12/15 01:52:17;;;;;;;;;;;;;;;;;;7397756;19;19911;-71
2021/12/15 01:54:48;;;;;;;;;;;;;;;;;;7397664;19;19936;-62
2021/12/15 01:57:17;;;;;;;;;;;;;;;;;;7397926;19;19918;-63
2021/12/15 01:59:45;;;;;;;;;;;;;;;;;;7395938;19;19914;-62
2021/12/15 02:02:13;;;;;;;;;;;;;;;;;;7393869;19;20241;-63
2021/12/15 02:04:41;;;;;;;;;;;;;;;;;;7399279;19;19968;-66
2021/12/15 02:07:11;;;;;;;;;;;;;;;;;;7397313;19;19919;-70
2021/12/15 02:12:22;;;;;;;;;;;;;;;;;;7396954;19;19918;-67
2021/12/15 02:14:50;;;;;;;;;;;;;;;;;;7395743;19;19914;-62
2021/12/15 02:17:17;;;;;;;;;;;;;;;;;;7397116;19;19925;-63
2021/12/15 02:19:45;;;;;;;;;;;;;;;;;;7397391;19;19936;-62
2021/12/15 02:22:13;;;;;;;;;;;;;;;;;;7393344;19;19915;-70
2021/12/15 02:24:42;;;;;;;;;;;;;;;;;;7397665;19;19915;-70
2021/12/15 02:27:12;;;;;;;;;;;;;;;;;;7396732;19;19934;-67
2021/12/15 02:29:42;;;;;;;;;;;;;;;;;;7395457;19;19925;-72
2021/12/15 02:32:32;;;;;;;;;;;;;;;;;;7395495;19;19911;-62
2021/12/15 02:37:46;;;;;;;;;;;;;;;;;;7396690;19;20502;-64
2021/12/15 02:40:16;;;;;;;;;;;;;;;;;;7395604;19;19919;-69
2021/12/15 02:42:46;;;;;;;;;;;;;;;;;;7395694;19;19956;-70
2021/12/15 02:45:15;;;;;;;;;;;;;;;;;;7395200;19;19915;-65
2021/12/15 02:47:42;;;;;;;;;;;;;;;;;;7396136;19;19911;-68
2021/12/15 02:50:13;;;;;;;;;;;;;;;;;;7396135;19;20327;-62
2021/12/15 02:52:40;;;;;;;;;;;;;;;;;;7396445;19;19915;-64
2021/12/15 02:55:07;;;;;;;;;;;;;;;;;;7395258;19;20247;-66
2021/12/15 02:57:35;;;;;;;;;;;;;;;;;;7397739;19;19911;-64
2021/12/15 03:00:16;;;;;;;;;;;;;;;;;;7394201;19;19915;-63
2021/12/15 03:05:45;;;;;;;;;;;;;;;;;;7395676;19;19983;-63
2021/12/15 03:16:14;;;;;;;;;;;;;;;;;;7396272;19;19914;-67
2021/12/15 03:18:42;;;;;;;;;;;;;;;;;;7395168;19;19922;-69
2021/12/15 03:21:12;;;;;;;;;;;;;;;;;;7394067;19;20000;-63
2021/12/15 03:23:50;;;;;;;;;;;;;;;;;;7394960;19;20231;-62
2021/12/15 03:26:25;;;;;;;;;;;;;;;;;;7394052;19;19914;-67
2021/12/15 03:37:20;;;;;;;;;;;;;;;;;;7398468;19;19915;-63
2021/12/15 03:39:48;;;;;;;;;;;;;;;;;;7394127;19;20327;-62
2021/12/15 03:42:18;;;;;;;;;;;;;;;;;;7393637;19;20427;-69
2021/12/15 03:44:48;;;;;;;;;;;;;;;;;;7394869;19;19994;-65
2021/12/15 03:47:18;;;;;;;;;;;;;;;;;;7394351;19;19931;-67
2021/12/15 03:49:46;;;;;;;;;;;;;;;;;;7394396;19;19932;-63
2021/12/15 03:52:13;;;;;;;;;;;;;;;;;;7394018;19;19911;-61
2021/12/15 03:54:42;;;;;;;;;;;;;;;;;;7394099;19;19922;-62
2021/12/15 03:57:10;;;;;;;;;;;;;;;;;;7393970;19;19954;-63
2021/12/15 03:59:42;;;;;;;;;;;;;;;;;;7394123;19;19946;-69
2021/12/15 04:02:11;;;;;;;;;;;;;;;;;;7392702;19;20351;-66
2021/12/15 04:04:40;;;;;;;;;;;;;;;;;;7393629;19;19939;-62
2021/12/15 04:07:08;;;;;;;;;;;;;;;;;;7393964;19;19954;-64
2021/12/15 04:09:35;;;;;;;;;;;;;;;;;;7393205;19;19915;-65
2021/12/15 04:12:03;;;;;;;;;;;;;;;;;;7393729;19;19923;-61
2021/12/15 04:14:43;;;;;;;;;;;;;;;;;;7393470;19;19919;-62
2021/12/15 04:17:30;;;;;;;;;;;;;;;;;;7393381;19;19925;-62
2021/12/15 04:20:00;;;;;;;;;;;;;;;;;;7392920;19;19938;-62
2021/12/15 04:22:28;;;;;;;;;;;;;;;;;;7391663;19;19922;-65
2021/12/15 04:24:56;;;;;;;;;;;;;;;;;;7393012;19;19938;-65
2021/12/15 04:27:23;;;;;;;;;;;;;;;;;;7396233;19;19929;-62
2021/12/15 04:29:52;;;;;;;;;;;;;;;;;;7391141;19;20319;-62
2021/12/15 04:32:24;;;;;;;;;;;;;;;;;;7392884;19;20327;-62
2021/12/15 04:34:51;;;;;;;;;;;;;;;;;;7392596;19;20430;-62
2021/12/15 04:37:18;;;;;;;;;;;;;;;;;;7397004;19;19907;-61
2021/12/15 04:39:46;;;;;;;;;;;;;;;;;;7392702;19;19922;-67
2021/12/15 04:42:16;;;;;;;;;;;;;;;;;;7391296;19;19925;-60
2021/12/15 04:44:44;;;;;;;;;;;;;;;;;;7392869;19;19938;-61
2021/12/15 04:47:12;;;;;;;;;;;;;;;;;;7392196;19;19947;-61
2021/12/15 04:49:42;;;;;;;;;;;;;;;;;;7392886;19;19922;-65
2021/12/15 04:52:11;;;;;;;;;;;;;;;;;;7392472;19;19915;-68
2021/12/15 04:54:38;;;;;;;;;;;;;;;;;;7392627;19;19929;-63
2021/12/15 04:57:08;;;;;;;;;;;;;;;;;;7392129;19;19947;-61
2021/12/15 04:59:35;;;;;;;;;;;;;;;;;;7392133;19;19939;-61
2021/12/15 05:02:04;;;;;;;;;;;;;;;;;;7391804;19;19915;-69
2021/12/15 05:04:32;;;;;;;;;;;;;;;;;;7392086;19;19918;-64
2021/12/15 05:06:59;;;;;;;;;;;;;;;;;;7391815;19;19970;-66
2021/12/15 05:09:27;;;;;;;;;;;;;;;;;;7392207;19;19937;-65
2021/12/15 05:11:55;;;;;;;;;;;;;;;;;;7392108;19;19921;-66
2021/12/15 05:14:22;;;;;;;;;;;;;;;;;;7391705;19;19919;-61
2021/12/15 05:16:51;;;;;;;;;;;;;;;;;;7391745;19;19934;-61
2021/12/15 05:19:19;;;;;;;;;;;;;;;;;;7392463;19;19922;-67
2021/12/15 05:21:50;;;;;;;;;;;;;;;;;;7392469;19;20316;-62
2021/12/15 05:24:36;;;;;;;;;;;;;;;;;;7397880;19;19926;-61
2021/12/15 05:27:09;;;;;;;;;;;;;;;;;;7378618;19;20367;-62
2021/12/15 05:29:37;;;;;;;;;;;;;;;;;;7398895;19;19911;-65
2021/12/15 05:32:05;;;;;;;;;;;;;;;;;;7397359;19;20336;-66
2021/12/15 05:34:33;;;;;;;;;;;;;;;;;;7398340;19;19934;-66
2021/12/15 05:37:00;;;;;;;;;;;;;;;;;;7401910;19;19947;-61
2021/12/15 05:39:28;;;;;;;;;;;;;;;;;;7396699;19;19946;-64
2021/12/15 05:41:57;;;;;;;;;;;;;;;;;;7397272;19;20347;-62
2021/12/15 05:44:25;;;;;;;;;;;;;;;;;;7398326;19;19914;-62
2021/12/15 05:46:54;;;;;;;;;;;;;;;;;;7397449;19;19918;-61
2021/12/15 05:49:22;;;;;;;;;;;;;;;;;;7398569;19;19919;-65
2021/12/15 05:51:50;;;;;;;;;;;;;;;;;;7398432;19;19919;-61
2021/12/15 05:54:18;;;;;;;;;;;;;;;;;;7403413;19;19929;-68
2021/12/15 05:56:45;;;;;;;;;;;;;;;;;;7398694;19;19978;-62
2021/12/15 05:59:13;;;;;;;;;;;;;;;;;;7397471;19;19914;-65
2021/12/15 06:01:40;;;;;;;;;;;;;;;;;;7397012;19;19915;-61
2021/12/15 06:04:08;;;;;;;;;;;;;;;;;;7397377;19;19918;-62
2021/12/15 06:06:36;;;;;;;;;;;;;;;;;;7397759;19;20332;-61
2021/12/15 06:09:05;;;;;;;;;;;;;;;;;;7397692;19;19911;-64
2021/12/15 06:11:32;;;;;;;;;;;;;;;;;;7397610;19;19934;-62
2021/12/15 06:14:00;;;;;;;;;;;;;;;;;;7397183;19;19919;-66
2021/12/15 06:16:27;;;;;;;;;;;;;;;;;;7397192;19;19915;-67
2021/12/15 06:18:55;;;;;;;;;;;;;;;;;;7397183;19;19936;-64
2021/12/15 06:21:22;;;;;;;;;;;;;;;;;;7395321;19;20350;-64
2021/12/15 06:23:50;;;;;;;;;;;;;;;;;;7397231;19;19923;-63
2021/12/15 06:26:18;;;;;;;;;;;;;;;;;;7397323;19;19938;-64
2021/12/15 06:28:46;;;;;;;;;;;;;;;;;;7398052;19;20019;-63
2021/12/15 06:31:15;;;;;;;;;;;;;;;;;;7396488;19;19984;-63
2021/12/15 06:33:43;;;;;;;;;;;;;;;;;;7396880;19;19914;-63
2021/12/15 06:36:13;;;;;;;;;;;;;;;;;;7398661;19;19919;-66
2021/12/15 06:38:42;;;;;;;;;;;;;;;;;;7396359;19;19918;-67
2021/12/15 06:41:12;;;;;;;;;;;;;;;;;;7395086;19;19941;-65
2021/12/15 06:43:42;;;;;;;;;;;;;;;;;;7393158;19;20135;-65
2021/12/15 06:57:33;;;;;;;;;;;;;;;;;;7396124;19;19918;-65
2021/12/15 07:00:06;;;;;;;;;;;;;;;;;;7396345;19;20035;-67
2021/12/15 07:02:33;;;;;;;;;;;;;;;;;;7394764;19;20331;-65
2021/12/15 07:05:01;;;;;;;;;;;;;;;;;;7395735;19;19915;-65
2021/12/15 07:07:28;;;;;;;;;;;;;;;;;;7395588;19;19914;-65
2021/12/15 07:09:56;;;;;;;;;;;;;;;;;;7399858;19;19943;-67
2021/12/15 07:12:27;;;;;;;;;;;;;;;;;;7395373;19;19919;-65
2021/12/15 07:14:54;;;;;;;;;;;;;;;;;;7395426;19;20332;-66
2021/12/15 07:17:24;;;;;;;;;;;;;;;;;;7395680;19;19918;-65
2021/12/15 07:24:56;;;;;;;;;;;;;;;;;;7397726;19;20334;-65
2021/12/15 07:27:23;;;;;;;;;;;;;;;;;;7395299;19;20359;-67
2021/12/15 07:29:50;;;;;;;;;;;;;;;;;;7394964;19;20364;-65
2021/12/15 07:32:17;;;;;;;;;;;;;;;;;;7395309;19;19911;-65
2021/12/15 07:34:45;;;;;;;;;;;;;;;;;;7395094;19;19919;-64
2021/12/15 07:37:13;;;;;;;;;;;;;;;;;;7396554;19;20306;-65
2021/12/15 07:39:48;;;;;;;;;;;;;;;;;;7394014;19;19926;-65
2021/12/15 07:42:15;;;;;;;;;;;;;;;;;;7394921;19;19919;-65
2021/12/15 07:44:43;;;;;;;;;;;;;;;;;;7393187;19;19915;-65
2021/12/15 07:47:10;;;;;;;;;;;;;;;;;;7394297;19;19947;-66
2021/12/15 07:49:37;;;;;;;;;;;;;;;;;;7394387;19;20319;-65
2021/12/15 07:52:06;;;;;;;;;;;;;;;;;;7394227;19;20355;-65
2021/12/15 07:54:35;;;;;;;;;;;;;;;;;;7394349;19;19915;-67
2021/12/15 07:57:04;;;;;;;;;;;;;;;;;;7393873;19;19932;-67
2021/12/15 07:59:32;;;;;;;;;;;;;;;;;;7394525;19;19915;-65
2021/12/15 08:01:59;;;;;;;;;;;;;;;;;;7393760;19;19949;-65
2021/12/15 08:04:27;;;;;;;;;;;;;;;;;;7393803;19;20328;-66
2021/12/15 08:06:54;;;;;;;;;;;;;;;;;;7393800;19;19911;-64
2021/12/15 08:09:22;;;;;;;;;;;;;;;;;;7394208;19;19936;-64
2021/12/15 08:11:50;;;;;;;;;;;;;;;;;;7392495;19;19914;-66
2021/12/15 08:14:17;;;;;;;;;;;;;;;;;;7393861;19;19914;-65
2021/12/15 08:16:45;;;;;;;;;;;;;;;;;;7393199;19;19922;-64
2021/12/15 08:19:15;;;;;;;;;;;;;;;;;;7393341;19;20240;-65
2021/12/15 08:21:43;;;;;;;;;;;;;;;;;;7393060;19;19931;-67
2021/12/15 08:24:12;;;;;;;;;;;;;;;;;;7393342;19;19923;-65
2021/12/15 08:26:41;;;;;;;;;;;;;;;;;;7393492;19;19919;-65
2021/12/15 08:29:08;;;;;;;;;;;;;;;;;;7392721;19;19911;-67
2021/12/15 08:31:35;;;;;;;;;;;;;;;;;;7392905;19;19935;-63
2021/12/15 08:34:03;;;;;;;;;;;;;;;;;;7391426;19;19918;-62
2021/12/15 08:36:30;;;;;;;;;;;;;;;;;;7395922;19;20143;-64
2021/12/15 08:38:58;;;;;;;;;;;;;;;;;;7392434;19;19917;-65
2021/12/15 08:41:26;;;;;;;;;;;;;;;;;;7391656;19;19990;-64
2021/12/15 08:43:54;;;;;;;;;;;;;;;;;;7390704;19;19915;-63
2021/12/15 08:46:23;;;;;;;;;;;;;;;;;;7392481;19;19915;-62
2021/12/15 08:48:53;;;;;;;;;;;;;;;;;;7392369;19;19915;-63
2021/12/15 08:51:25;;;;;;;;;;;;;;;;;;7392401;19;20247;-65
2021/12/15 08:53:54;;;;;;;;;;;;;;;;;;7392667;19;19918;-62
2021/12/15 08:56:21;;;;;;;;;;;;;;;;;;7389934;19;19919;-63
2021/12/15 08:58:48;;;;;;;;;;;;;;;;;;7392495;19;19939;-62
2021/12/15 09:01:16;;;;;;;;;;;;;;;;;;7395793;19;19919;-63
2021/12/15 09:03:44;;;;;;;;;;;;;;;;;;7390829;19;19914;-62
2021/12/15 09:06:12;;;;;;;;;;;;;;;;;;7392539;19;19926;-63
2021/12/15 09:08:40;;;;;;;;;;;;;;;;;;7391428;19;19915;-65
2021/12/15 09:11:10;;;;;;;;;;;;;;;;;;7391816;19;19915;-63
2021/12/15 09:13:38;;;;;;;;;;;;;;;;;;7390698;19;19925;-64
2021/12/15 09:16:08;;;;;;;;;;;;;;;;;;7392086;19;19915;-65
2021/12/15 09:18:36;;;;;;;;;;;;;;;;;;7391739;19;19930;-65
2021/12/15 09:21:04;;;;;;;;;;;;;;;;;;7391189;19;20255;-65
2021/12/15 09:23:32;;;;;;;;;;;;;;;;;;7390059;19;20324;-63
2021/12/15 09:26:01;;;;;;;;;;;;;;;;;;7390928;19;20327;-62
2021/12/15 09:28:32;;;;;;;;;;;;;;;;;;7391690;19;19914;-62
2021/12/15 09:30:59;;;;;;;;;;;;;;;;;;7391286;19;19911;-65
2021/12/15 09:33:29;;;;;;;;;;;;;;;;;;7391491;19;19975;-64
2021/12/15 09:35:57;;;;;;;;;;;;;;;;;;7392961;19;19978;-65
2021/12/15 09:38:25;;;;;;;;;;;;;;;;;;7391129;19;19981;-63
2021/12/15 09:40:55;;;;;;;;;;;;;;;;;;7390077;19;19915;-62
2021/12/15 09:43:27;;;;;;;;;;;;;;;;;;7389598;19;19918;-62
2021/12/15 09:46:29;;;;;;;;;;;;;;;;;;7390182;19;19936;-65
2021/12/15 09:57:47;;;;;;;;;;;;;;;;;;7390383;19;20347;-64
2021/12/15 10:02:58;;;;;;;;;;;;;;;;;;7390012;19;19921;-67
2021/12/15 10:19:18;;;;;;;;;;;;;;;;;;7397294;19;19918;-66
2021/12/15 10:21:58;;;;;;;;;;;;;;;;;;7397136;19;19918;-62
2021/12/15 10:24:37;;;;;;;;;;;;;;;;;;7394983;19;19922;-66
2021/12/15 10:27:05;;;;;;;;;;;;;;;;;;7396901;19;19918;-63
2021/12/15 10:29:33;;;;;;;;;;;;;;;;;;7397272;19;19971;-67
2021/12/15 10:32:02;;;;;;;;;;;;;;;;;;7396717;19;19914;-63
2021/12/15 10:34:30;;;;;;;;;;;;;;;;;;7396814;19;19915;-65
2021/12/15 10:37:02;;;;;;;;;;;;;;;;;;7400354;19;19974;-65
2021/12/15 10:39:29;;;;;;;;;;;;;;;;;;7396243;19;19915;-66
2021/12/15 10:41:57;;;;;;;;;;;;;;;;;;7396777;19;20261;-67
2021/12/15 10:44:25;;;;;;;;;;;;;;;;;;7394409;19;19919;-65
2021/12/15 10:46:54;;;;;;;;;;;;;;;;;;7395897;19;19914;-64
2021/12/15 10:49:27;;;;;;;;;;;;;;;;;;7396637;19;19971;-64
2021/12/15 10:52:00;;;;;;;;;;;;;;;;;;7396583;19;19938;-64
2021/12/15 10:54:32;;;;;;;;;;;;;;;;;;7396168;19;19927;-63
2021/12/15 10:57:05;;;;;;;;;;;;;;;;;;7395977;19;19914;-63
2021/12/15 10:59:36;;;;;;;;;;;;;;;;;;7396102;19;19923;-64
2021/12/15 11:02:11;;;;;;;;;;;;;;;;;;7395610;19;19926;-63
2021/12/15 11:04:38;;;;;;;;;;;;;;;;;;7393787;19;20344;-63
2021/12/15 11:07:08;;;;;;;;;;;;;;;;;;7395520;19;19917;-65
2021/12/15 11:09:42;;;;;;;;;;;;;;;;;;7395667;19;19915;-66
2021/12/15 11:12:20;;;;;;;;;;;;;;;;;;7395689;19;19922;-64
2021/12/15 11:14:49;;;;;;;;;;;;;;;;;;7395729;19;20624;-66
2021/12/15 11:17:23;;;;;;;;;;;;;;;;;;7395231;19;19930;-63
2021/12/15 11:19:56;;;;;;;;;;;;;;;;;;7393775;19;19911;-64
2021/12/15 11:22:34;;;;;;;;;;;;;;;;;;7395029;19;19919;-63
2021/12/15 11:25:03;;;;;;;;;;;;;;;;;;7395094;19;19914;-66
2021/12/15 11:27:30;;;;;;;;;;;;;;;;;;7394610;19;19956;-64
2021/12/15 11:29:57;;;;;;;;;;;;;;;;;;7395688;19;19922;-66
2021/12/15 11:32:42;;;;;;;;;;;;;;;;;;7394801;19;19921;-65
2021/12/15 11:35:20;;;;;;;;;;;;;;;;;;7394755;19;19911;-64
2021/12/15 11:37:49;;;;;;;;;;;;;;;;;;7394770;19;19946;-65
2021/12/15 11:40:22;;;;;;;;;;;;;;;;;;7394092;19;19923;-63
2021/12/15 11:42:49;;;;;;;;;;;;;;;;;;7394845;19;19922;-67
2021/12/15 11:45:17;;;;;;;;;;;;;;;;;;7394599;19;19911;-66
2021/12/15 11:47:44;;;;;;;;;;;;;;;;;;7394371;19;19915;-64
2021/12/15 11:50:13;;;;;;;;;;;;;;;;;;7394479;19;20326;-66
2021/12/15 11:52:43;;;;;;;;;;;;;;;;;;7393517;19;19915;-64
2021/12/15 11:55:28;;;;;;;;;;;;;;;;;;7393591;19;20350;-65
2021/12/15 11:57:56;;;;;;;;;;;;;;;;;;7393940;19;19915;-67
2021/12/15 12:00:26;;;;;;;;;;;;;;;;;;7393688;19;20367;-63
2021/12/15 12:02:55;;;;;;;;;;;;;;;;;;7393745;19;19998;-64
2021/12/15 12:05:29;;;;;;;;;;;;;;;;;;7393889;19;19958;-63
2021/12/15 12:08:06;;;;;;;;;;;;;;;;;;7393864;19;19943;-65
2021/12/15 12:10:44;;;;;;;;;;;;;;;;;;7393456;19;19986;-65
2021/12/15 12:13:15;;;;;;;;;;;;;;;;;;7393443;19;19923;-63
2021/12/15 12:15:44;;;;;;;;;;;;;;;;;;7393462;19;19935;-63
2021/12/15 12:18:13;;;;;;;;;;;;;;;;;;7393574;19;19928;-66
2021/12/15 12:20:42;;;;;;;;;;;;;;;;;;7392531;19;20335;-64
2021/12/15 12:23:11;;;;;;;;;;;;;;;;;;7392795;19;19922;-66
2021/12/15 12:25:40;;;;;;;;;;;;;;;;;;7393108;19;19966;-67
2021/12/15 12:28:12;;;;;;;;;;;;;;;;;;7393350;19;19938;-63
2021/12/15 12:30:42;;;;;;;;;;;;;;;;;;7392530;19;20233;-64
2021/12/15 12:33:10;;;;;;;;;;;;;;;;;;7392449;19;19923;-64
2021/12/15 12:35:49;;;;;;;;;;;;;;;;;;7393909;19;19911;-66
2021/12/15 12:38:20;;;;;;;;;;;;;;;;;;7392848;19;19925;-63
2021/12/15 12:40:56;;;;;;;;;;;;;;;;;;7391877;19;19922;-64
2021/12/15 12:43:23;;;;;;;;;;;;;;;;;;7391593;19;19915;-63
2021/12/15 12:46:17;;;;;;;;;;;;;;;;;;7392253;19;20343;-66
2021/12/15 13:00:20;;;;;;;;;;;;;;;;;;7391793;19;19914;-66
2021/12/15 13:02:50;;;;;;;;;;;;;;;;;;7392591;19;19932;-64
2021/12/15 13:05:38;;;;;;;;;;;;;;;;;;7391944;19;19911;-67
2021/12/15 13:08:08;;;;;;;;;;;;;;;;;;7391593;19;19914;-64
2021/12/15 13:10:49;;;;;;;;;;;;;;;;;;7391194;19;19975;-63
2021/12/15 13:13:18;;;;;;;;;;;;;;;;;;7391997;19;19915;-68
2021/12/15 13:15:57;;;;;;;;;;;;;;;;;;7391721;19;20339;-64
2021/12/15 13:18:25;;;;;;;;;;;;;;;;;;7391814;19;19942;-65
2021/12/15 13:21:00;;;;;;;;;;;;;;;;;;7391929;19;19970;-63
2021/12/15 13:23:38;;;;;;;;;;;;;;;;;;7390796;19;19978;-66
2021/12/15 13:28:53;;;;;;;;;;;;;;;;;;7394041;19;19983;-65
2021/12/15 13:31:21;;;;;;;;;;;;;;;;;;7390595;19;19915;-63
2021/12/15 13:33:49;;;;;;;;;;;;;;;;;;7391675;19;19986;-65
2021/12/15 13:36:24;;;;;;;;;;;;;;;;;;7392780;19;19915;-65
2021/12/15 13:39:07;;;;;;;;;;;;;;;;;;7391241;19;19918;-63
2021/12/15 13:41:43;;;;;;;;;;;;;;;;;;7389095;19;20383;-64
2021/12/15 13:44:35;;;;;;;;;;;;;;;;;;7395714;19;19915;-65
2021/12/15 13:47:15;;;;;;;;;;;;;;;;;;7398057;19;19918;-63
2021/12/15 13:49:44;;;;;;;;;;;;;;;;;;7398190;19;19933;-67
2021/12/15 13:52:27;;;;;;;;;;;;;;;;;;7397974;19;20394;-65
2021/12/15 13:54:57;;;;;;;;;;;;;;;;;;7397447;19;20335;-65
2021/12/15 13:57:47;;;;;;;;;;;;;;;;;;7397951;19;19919;-62
2021/12/15 14:00:21;;;;;;;;;;;;;;;;;;7397573;19;19945;-63
2021/12/15 14:02:56;;;;;;;;;;;;;;;;;;7398415;19;19942;-64
2021/12/15 14:05:32;;;;;;;;;;;;;;;;;;7395644;19;19922;-66
2021/12/15 14:08:06;;;;;;;;;;;;;;;;;;7397377;19;19939;-64
2021/12/15 14:10:41;;;;;;;;;;;;;;;;;;7397944;19;19926;-64
2021/12/15 14:13:11;;;;;;;;;;;;;;;;;;7397230;19;20410;-65
2021/12/15 14:15:42;;;;;;;;;;;;;;;;;;7397160;19;20332;-66
2021/12/15 14:18:25;;;;;;;;;;;;;;;;;;7397534;19;19918;-64
2021/12/15 14:20:58;;;;;;;;;;;;;;;;;;7397317;19;19919;-62
2021/12/15 14:23:46;;;;;;;;;;;;;;;;;;7397134;19;19919;-63
2021/12/15 14:26:30;;;;;;;;;;;;;;;;;;7397575;19;19948;-66
2021/12/15 14:28:59;;;;;;;;;;;;;;;;;;7396319;19;19926;-62
2021/12/15 14:31:28;;;;;;;;;;;;;;;;;;7396948;19;19956;-67
2021/12/15 14:33:56;;;;;;;;;;;;;;;;;;7399905;19;19938;-63
2021/12/15 14:36:31;;;;;;;;;;;;;;;;;;7398904;19;19912;-63
2021/12/15 14:39:00;;;;;;;;;;;;;;;;;;7397030;19;19958;-66
2021/12/15 14:41:45;;;;;;;;;;;;;;;;;;7397062;19;19991;-65
2021/12/15 14:44:17;;;;;;;;;;;;;;;;;;7395250;19;20340;-66
2021/12/15 14:46:46;;;;;;;;;;;;;;;;;;7396318;19;19925;-66
2021/12/15 14:49:15;;;;;;;;;;;;;;;;;;7396247;19;19919;-62
2021/12/15 14:51:45;;;;;;;;;;;;;;;;;;7396089;19;19936;-67
2021/12/15 14:54:13;;;;;;;;;;;;;;;;;;7393229;19;20420;-66
2021/12/15 14:56:42;;;;;;;;;;;;;;;;;;7395845;19;19925;-64
2021/12/15 14:59:12;;;;;;;;;;;;;;;;;;7395708;19;19915;-62
2021/12/15 15:01:40;;;;;;;;;;;;;;;;;;7395536;19;19921;-62
2021/12/15 15:04:08;;;;;;;;;;;;;;;;;;7394917;19;19911;-65
2021/12/15 15:06:35;;;;;;;;;;;;;;;;;;7395704;19;19923;-63
2021/12/15 15:09:09;;;;;;;;;;;;;;;;;;7395677;19;20356;-62
2021/12/15 15:11:36;;;;;;;;;;;;;;;;;;7395748;19;20268;-63
2021/12/15 15:14:03;;;;;;;;;;;;;;;;;;7395755;19;19975;-62
2021/12/15 15:16:34;;;;;;;;;;;;;;;;;;7395910;19;19923;-63
2021/12/15 15:19:16;;;;;;;;;;;;;;;;;;7393924;19;19911;-62
2021/12/15 15:21:46;;;;;;;;;;;;;;;;;;7394834;19;20332;-63
2021/12/15 15:24:29;;;;;;;;;;;;;;;;;;7394460;19;19923;-64
2021/12/15 15:27:02;;;;;;;;;;;;;;;;;;7393750;19;19923;-66
2021/12/15 15:29:36;;;;;;;;;;;;;;;;;;7396288;19;19915;-66
2021/12/15 15:32:18;;;;;;;;;;;;;;;;;;7394668;19;19937;-62
2021/12/15 15:34:47;;;;;;;;;;;;;;;;;;7394393;19;19919;-61
2021/12/15 15:37:26;;;;;;;;;;;;;;;;;;7395274;19;19935;-65
2021/12/15 15:40:12;;;;;;;;;;;;;;;;;;7393941;19;19946;-65
2021/12/15 15:42:41;;;;;;;;;;;;;;;;;;7393760;19;19938;-62
2021/12/15 15:45:19;;;;;;;;;;;;;;;;;;7391742;19;19919;-62
2021/12/15 15:47:46;;;;;;;;;;;;;;;;;;7391822;19;19942;-62
2021/12/15 15:50:13;;;;;;;;;;;;;;;;;;7392656;19;19915;-59
2021/12/15 15:52:42;;;;;;;;;;;;;;;;;;7394141;19;19950;-62
2021/12/15 15:55:09;;;;;;;;;;;;;;;;;;7393787;19;19915;-63
2021/12/15 15:57:37;;;;;;;;;;;;;;;;;;7393933;19;19919;-63
2021/12/15 16:00:05;;;;;;;;;;;;;;;;;;7393562;19;19936;-64
2021/12/15 16:02:40;;;;;;;;;;;;;;;;;;7398173;19;19915;-62
2021/12/15 16:05:08;;;;;;;;;;;;;;;;;;7390211;19;19940;-62
2021/12/15 16:07:39;;;;;;;;;;;;;;;;;;7393969;19;19994;-63
2021/12/15 16:10:09;;;;;;;;;;;;;;;;;;7392427;19;20022;-65
2021/12/15 16:12:37;;;;;;;;;;;;;;;;;;7393217;19;19919;-64
2021/12/15 16:15:08;;;;;;;;;;;;;;;;;;7393486;19;19923;-62
2021/12/15 16:17:43;;;;;;;;;;;;;;;;;;7393179;19;19966;-65
2021/12/15 16:20:21;;;;;;;;;;;;;;;;;;7392838;19;20328;-64
2021/12/15 16:22:51;;;;;;;;;;;;;;;;;;7393025;19;19915;-63
2021/12/15 16:25:18;;;;;;;;;;;;;;;;;;7394378;19;20399;-63
2021/12/15 16:28:06;;;;;;;;;;;;;;;;;;7392606;19;19915;-62
2021/12/15 16:30:38;;;;;;;;;;;;;;;;;;7391183;19;19970;-63
2021/12/15 16:33:10;;;;;;;;;;;;;;;;;;7394701;19;19967;-66
2021/12/15 16:35:38;;;;;;;;;;;;;;;;;;7392198;19;20017;-63
2021/12/15 16:38:30;;;;;;;;;;;;;;;;;;7393988;19;20359;-58
2021/12/15 16:41:10;;;;;;;;;;;;;;;;;;7389892;19;19930;-62
2021/12/15 16:43:54;;;;;;;;;;;;;;;;;;7395382;19;19942;-64
2021/12/15 16:46:30;;;;;;;;;;;;;;;;;;7394747;19;19919;-61
2021/12/15 16:49:08;;;;;;;;;;;;;;;;;;7392277;19;19919;-61
2021/12/15 16:51:36;;;;;;;;;;;;;;;;;;7390645;19;19915;-62
2021/12/15 16:54:06;;;;;;;;;;;;;;;;;;7392483;19;19919;-63
2021/12/15 16:56:50;;;;;;;;;;;;;;;;;;7392050;19;19934;-63
2021/12/15 16:59:25;;;;;;;;;;;;;;;;;;7392215;19;19915;-63
2021/12/15 17:02:01;;;;;;;;;;;;;;;;;;7391676;19;19958;-62
2021/12/15 17:04:33;;;;;;;;;;;;;;;;;;7391405;19;19911;-66
2021/12/15 17:07:02;;;;;;;;;;;;;;;;;;7391332;19;20360;-66
2021/12/15 17:09:34;;;;;;;;;;;;;;;;;;7391854;19;19922;-61
2021/12/15 17:12:08;;;;;;;;;;;;;;;;;;7391500;19;19921;-64
2021/12/15 17:14:50;;;;;;;;;;;;;;;;;;7391015;19;19938;-62
2021/12/15 17:17:32;;;;;;;;;;;;;;;;;;7392402;19;19918;-62
2021/12/15 17:20:00;;;;;;;;;;;;;;;;;;7399586;19;19915;-63
2021/12/15 17:22:37;;;;;;;;;;;;;;;;;;7398506;19;19914;-65
2021/12/15 17:25:13;;;;;;;;;;;;;;;;;;7397477;19;19930;-62
2021/12/15 17:27:59;;;;;;;;;;;;;;;;;;7399444;19;19951;-64
2021/12/15 17:30:37;;;;;;;;;;;;;;;;;;7398611;19;20003;-66
2021/12/15 17:33:06;;;;;;;;;;;;;;;;;;7398565;19;19919;-62
2021/12/15 17:35:34;;;;;;;;;;;;;;;;;;7399590;19;19907;-65
2021/12/15 17:38:21;;;;;;;;;;;;;;;;;;7397090;19;19918;-65
2021/12/15 17:40:51;;;;;;;;;;;;;;;;;;7396939;19;19919;-62
2021/12/15 17:43:29;;;;;;;;;;;;;;;;;;7398949;19;19919;-66
2021/12/15 17:45:57;;;;;;;;;;;;;;;;;;7395381;19;19986;-65
2021/12/15 17:48:25;;;;;;;;;;;;;;;;;;7398235;19;19922;-65
2021/12/15 17:50:54;;;;;;;;;;;;;;;;;;7398611;19;19929;-64
2021/12/15 17:53:21;;;;;;;;;;;;;;;;;;7398681;19;19911;-64
2021/12/15 17:55:53;;;;;;;;;;;;;;;;;;7398708;19;19915;-66
2021/12/15 17:58:30;;;;;;;;;;;;;;;;;;7398226;19;20379;-63
2021/12/15 18:01:09;;;;;;;;;;;;;;;;;;7397813;19;19974;-66
2021/12/15 18:03:42;;;;;;;;;;;;;;;;;;7398040;19;19931;-65
2021/12/15 18:06:13;;;;;;;;;;;;;;;;;;7395485;19;19924;-65
2021/12/15 18:08:43;;;;;;;;;;;;;;;;;;7395707;19;19928;-63
2021/12/15 18:11:14;;;;;;;;;;;;;;;;;;7397621;19;20327;-62
2021/12/15 18:13:45;;;;;;;;;;;;;;;;;;7397997;19;19950;-64
2021/12/15 18:16:12;;;;;;;;;;;;;;;;;;7396512;19;19923;-62
2021/12/15 18:18:41;;;;;;;;;;;;;;;;;;7396874;19;19915;-64
2021/12/15 18:21:11;;;;;;;;;;;;;;;;;;7397884;19;19942;-66
2021/12/15 18:23:38;;;;;;;;;;;;;;;;;;7397031;19;19923;-63
2021/12/15 18:26:06;;;;;;;;;;;;;;;;;;7393131;19;19982;-62
2021/12/15 18:28:34;;;;;;;;;;;;;;;;;;7394837;19;19919;-63
2021/12/15 18:31:03;;;;;;;;;;;;;;;;;;7396773;19;19915;-63
2021/12/15 18:33:31;;;;;;;;;;;;;;;;;;7396356;19;19919;-63
2021/12/15 18:35:59;;;;;;;;;;;;;;;;;;7398206;19;19915;-63
2021/12/15 18:38:27;;;;;;;;;;;;;;;;;;7396498;19;19932;-63
2021/12/15 18:40:57;;;;;;;;;;;;;;;;;;7394781;19;19923;-63